createdAt,value
2022-09-20T00:00:49.027Z,15.29
2022-09-20T00:03:17.485Z,15.28
2022-09-20T00:05:47.114Z,15.20
2022-09-20T00:08:16.273Z,15.18
2022-09-20T00:10:43.800Z,15.20
2022-09-20T00:13:14.079Z,15.12
2022-09-20T00:15:42.618Z,15.13
2022-09-20T00:18:11.783Z,15.10
2022-09-20T00:20:46.109Z,15.09
2022-09-20T00:23:13.770Z,15.04
2022-09-20T00:25:41.599Z,15.02
2022-09-20T00:28:10.556Z,15.00
2022-09-20T00:30:38.534Z,14.95
2022-09-20T00:33:05.714Z,14.95
2022-09-20T00:35:34.267Z,14.91
2022-09-20T00:38:01.404Z,14.87
2022-09-20T00:40:29.093Z,14.82
2022-09-20T00:42:56.286Z,14.78
2022-09-20T00:45:25.554Z,14.73
2022-09-20T00:47:57.529Z,14.71
2022-09-20T00:50:30.679Z,14.67
2022-09-20T00:53:04.915Z,14.61
2022-09-20T00:55:35.181Z,14.56
2022-09-20T00:58:02.733Z,14.49
2022-09-20T01:00:30.189Z,14.45
2022-09-20T01:03:01.462Z,14.42
2022-09-20T01:05:29.053Z,14.34
2022-09-20T01:07:57.213Z,14.34
2022-09-20T01:10:25.902Z,14.34
2022-09-20T01:12:54.309Z,14.26
2022-09-20T01:15:23.392Z,14.18
2022-09-20T01:17:53.859Z,14.11
2022-09-20T01:20:23.842Z,14.05
2022-09-20T01:23:07.710Z,14.00
2022-09-20T01:25:54.643Z,13.95
2022-09-20T01:28:23.481Z,13.89
2022-09-20T01:30:59.928Z,13.85
2022-09-20T01:33:31.329Z,13.82
2022-09-20T01:36:03.473Z,13.74
2022-09-20T01:38:38.544Z,13.69
2022-09-20T01:41:12.442Z,13.74
2022-09-20T01:43:48.797Z,13.70
2022-09-20T01:46:28.918Z,13.69
2022-09-20T01:49:05.357Z,13.70
2022-09-20T01:51:54.677Z,13.69
2022-09-20T01:54:43.680Z,13.69
2022-09-20T01:57:47.825Z,13.72
2022-09-20T02:00:19.593Z,13.65
2022-09-20T02:03:26.508Z,13.59
2022-09-20T02:06:17.857Z,13.53
2022-09-20T02:09:18.684Z,13.44
2022-09-20T02:12:06.992Z,13.43
2022-09-20T02:14:43.265Z,13.39
2022-09-20T02:17:14.312Z,13.34
2022-09-20T02:20:15.961Z,13.26
2022-09-20T02:22:54.323Z,13.19
2022-09-20T02:25:37.602Z,13.09
2022-09-20T02:28:18.006Z,13.04
2022-09-20T02:30:55.700Z,12.96
2022-09-20T02:34:00.256Z,12.90
2022-09-20T02:36:40.647Z,12.86
2022-09-20T02:39:13.396Z,12.81
2022-09-20T02:42:04.645Z,12.80
2022-09-20T02:44:53.641Z,12.75
2022-09-20T02:47:31.135Z,12.73
2022-09-20T02:50:23.060Z,12.63
2022-09-20T02:53:00.655Z,12.55
2022-09-20T02:55:36.498Z,12.51
2022-09-20T02:58:16.987Z,12.49
2022-09-20T03:00:53.744Z,12.49
2022-09-20T03:03:34.603Z,12.42
2022-09-20T03:06:10.148Z,12.41
2022-09-20T03:08:48.373Z,12.34
2022-09-20T03:11:27.184Z,12.31
2022-09-20T03:14:07.422Z,12.24
2022-09-20T03:16:51.884Z,12.28
2022-09-20T03:19:36.465Z,12.33
2022-09-20T03:22:16.607Z,12.26
2022-09-20T03:24:59.423Z,12.23
2022-09-20T03:27:32.860Z,12.17
2022-09-20T03:30:19.934Z,12.11
2022-09-20T03:32:58.389Z,12.10
2022-09-20T03:35:42.293Z,12.09
2022-09-20T03:38:30.553Z,12.06
2022-09-20T03:41:10.737Z,12.03
2022-09-20T03:43:56.232Z,11.96
2022-09-20T03:46:27.231Z,11.95
2022-09-20T03:49:25.915Z,11.93
2022-09-20T03:52:02.970Z,11.86
2022-09-20T03:55:15.580Z,11.80
2022-09-20T03:58:08.831Z,11.77
2022-09-20T04:00:53.229Z,11.75
2022-09-20T04:03:36.633Z,11.72
2022-09-20T04:06:23.108Z,11.71
2022-09-20T04:09:15.010Z,11.67
2022-09-20T04:11:53.009Z,11.61
2022-09-20T04:14:30.216Z,11.60
2022-09-20T04:17:04.674Z,11.62
2022-09-20T04:19:44.909Z,11.68
2022-09-20T04:22:12.488Z,11.70
2022-09-20T04:24:46.239Z,11.72
2022-09-20T04:27:19.495Z,11.78
2022-09-20T04:29:55.934Z,11.75
2022-09-20T04:32:28.848Z,11.75
2022-09-20T04:35:21.481Z,11.77
2022-09-20T04:37:50.928Z,11.72
2022-09-20T04:40:30.022Z,11.72
2022-09-20T04:43:35.830Z,11.64
2022-09-20T04:46:21.945Z,11.66
2022-09-20T04:49:20.149Z,11.63
2022-09-20T04:52:25.918Z,11.61
2022-09-20T04:55:25.408Z,11.63
2022-09-20T04:58:46.987Z,11.65
2022-09-20T05:02:09.039Z,11.63
2022-09-20T05:05:18.013Z,11.65
2022-09-20T05:08:21.102Z,11.85
2022-09-20T05:11:27.702Z,12.24
2022-09-20T05:14:17.304Z,12.29
2022-09-20T05:17:02.021Z,12.39
2022-09-20T05:19:39.782Z,12.39
2022-09-20T05:22:26.848Z,12.35
2022-09-20T05:25:17.234Z,12.36
2022-09-20T05:27:51.660Z,12.40
2022-09-20T05:30:26.348Z,12.47
2022-09-20T05:33:07.914Z,12.50
2022-09-20T05:35:44.000Z,12.54
2022-09-20T05:38:20.920Z,12.60
2022-09-20T05:41:03.512Z,12.67
2022-09-20T05:43:32.931Z,12.69
2022-09-20T05:46:14.532Z,12.80
2022-09-20T05:48:53.839Z,12.96
2022-09-20T05:51:32.025Z,13.11
2022-09-20T05:54:21.659Z,13.17
2022-09-20T05:56:59.342Z,13.23
2022-09-20T05:59:38.724Z,13.32
2022-09-20T06:02:21.634Z,13.40
2022-09-20T06:04:58.121Z,13.49
2022-09-20T06:07:37.072Z,13.55
2022-09-20T06:10:31.493Z,13.64
2022-09-20T06:13:11.814Z,13.70
2022-09-20T06:15:48.168Z,13.71
2022-09-20T06:18:24.243Z,13.66
2022-09-20T06:21:01.744Z,13.65
2022-09-20T06:23:31.338Z,13.67
2022-09-20T06:26:02.637Z,13.70
2022-09-20T06:28:34.217Z,13.70
2022-09-20T06:31:01.972Z,13.75
2022-09-20T06:33:30.235Z,13.83
2022-09-20T06:36:22.889Z,13.86
2022-09-20T06:39:19.871Z,13.83
2022-09-20T06:41:47.237Z,13.85
2022-09-20T06:44:14.325Z,13.88
2022-09-20T06:46:41.930Z,13.99
2022-09-20T06:49:09.821Z,14.11
2022-09-20T06:51:38.642Z,14.28
2022-09-20T06:54:12.479Z,14.60
2022-09-20T06:56:40.136Z,14.75
2022-09-20T06:59:11.509Z,14.84
2022-09-20T07:01:38.911Z,14.94
2022-09-20T07:04:06.634Z,14.97
2022-09-20T07:06:33.877Z,14.99
2022-09-20T07:09:01.124Z,15.10
2022-09-20T07:11:29.960Z,15.31
2022-09-20T07:13:58.321Z,15.40
2022-09-20T07:16:26.485Z,15.53
2022-09-20T07:18:54.254Z,15.66
2022-09-20T07:21:21.854Z,15.85
2022-09-20T07:23:49.156Z,16.14
2022-09-20T07:26:19.066Z,16.34
2022-09-20T07:28:49.437Z,16.49
2022-09-20T07:31:18.638Z,16.67
2022-09-20T07:33:45.794Z,16.86
2022-09-20T07:36:13.192Z,16.98
2022-09-20T07:38:40.953Z,17.11
2022-09-20T07:41:09.121Z,17.26
2022-09-20T07:43:36.605Z,17.38
2022-09-20T07:46:06.325Z,17.49
2022-09-20T07:48:36.110Z,17.65
2022-09-20T07:51:08.804Z,17.79
2022-09-20T07:53:36.602Z,17.88
2022-09-20T07:56:05.519Z,17.86
2022-09-20T07:58:34.857Z,17.95
2022-09-20T08:01:09.965Z,17.96
2022-09-20T08:03:37.914Z,17.97
2022-09-20T08:06:07.579Z,18.53
2022-09-20T08:08:36.413Z,19.26
2022-09-20T08:11:05.501Z,19.26
2022-09-20T08:16:24.997Z,19.05
2022-09-20T08:18:55.785Z,19.66
2022-09-20T08:21:24.068Z,20.13
2022-09-20T08:23:51.606Z,20.11
2022-09-20T08:26:20.920Z,19.97
2022-09-20T08:28:52.338Z,20.40
2022-09-20T08:31:21.096Z,20.99
2022-09-20T08:33:50.863Z,21.18
2022-09-20T08:36:19.659Z,21.45
2022-09-20T08:41:39.028Z,22.08
2022-09-20T08:44:11.841Z,22.39
2022-09-20T08:46:42.538Z,22.58
2022-09-20T08:49:18.600Z,22.63
2022-09-20T08:51:49.281Z,22.46
2022-09-20T08:54:16.905Z,22.57
2022-09-20T08:56:49.890Z,22.68
2022-09-20T08:59:20.077Z,22.80
2022-09-20T09:01:48.930Z,22.76
2022-09-20T09:04:19.593Z,22.67
2022-09-20T09:06:47.717Z,22.71
2022-09-20T09:09:19.784Z,22.82
2022-09-20T09:11:49.183Z,22.64
2022-09-20T09:14:44.331Z,22.37
2022-09-20T09:17:13.266Z,21.86
2022-09-20T09:19:47.973Z,22.10
2022-09-20T09:22:21.232Z,21.93
2022-09-20T09:25:07.027Z,21.82
2022-09-20T09:27:35.280Z,22.20
2022-09-20T09:30:02.897Z,22.37
2022-09-20T09:32:32.855Z,22.21
2022-09-20T09:35:23.314Z,22.53
2022-09-20T09:37:56.103Z,22.55
2022-09-20T09:40:23.958Z,22.66
2022-09-20T09:42:53.245Z,22.27
2022-09-20T09:45:32.154Z,22.53
2022-09-20T09:48:01.518Z,22.97
2022-09-20T09:50:32.933Z,23.06
2022-09-20T09:53:03.145Z,22.91
2022-09-20T09:55:52.773Z,22.47
2022-09-20T09:58:31.707Z,21.87
2022-09-20T10:01:02.786Z,21.88
2022-09-20T10:03:43.481Z,21.62
2022-09-20T10:06:25.374Z,21.95
2022-09-20T10:09:03.928Z,22.07
2022-09-20T10:11:43.976Z,21.78
2022-09-20T10:14:23.124Z,21.63
2022-09-20T10:17:09.211Z,21.29
2022-09-20T10:19:53.585Z,21.04
2022-09-20T10:22:33.928Z,21.11
2022-09-20T10:25:11.708Z,21.52
2022-09-20T10:27:54.761Z,21.57
2022-09-20T10:30:24.422Z,21.28
2022-09-20T10:33:03.199Z,21.54
2022-09-20T10:35:46.078Z,22.01
2022-09-20T10:38:19.913Z,21.85
2022-09-20T10:41:16.876Z,21.51
2022-09-20T10:43:56.976Z,21.37
2022-09-20T10:46:35.777Z,21.19
2022-09-20T10:49:11.920Z,21.34
2022-09-20T10:51:48.460Z,21.96
2022-09-20T10:54:29.284Z,22.35
2022-09-20T10:57:13.212Z,22.31
2022-09-20T10:59:51.376Z,21.94
2022-09-20T11:02:45.117Z,21.56
2022-09-20T11:05:22.392Z,21.47
2022-09-20T11:07:59.186Z,21.90
2022-09-20T11:10:31.084Z,22.52
2022-09-20T11:13:02.291Z,22.94
2022-09-20T11:15:33.437Z,23.02
2022-09-20T11:18:09.806Z,23.34
2022-09-20T11:20:44.269Z,23.49
2022-09-20T11:23:18.633Z,23.76
2022-09-20T11:25:51.968Z,23.76
2022-09-20T11:28:25.989Z,23.53
2022-09-20T11:31:00.085Z,23.84
2022-09-20T11:33:31.710Z,23.92
2022-09-20T11:36:02.001Z,23.46
2022-09-20T11:38:35.065Z,23.26
2022-09-20T11:41:11.793Z,23.06
2022-09-20T11:43:44.419Z,22.99
2022-09-20T11:46:14.849Z,23.37
2022-09-20T11:48:45.676Z,23.49
2022-09-20T11:51:28.181Z,23.07
2022-09-20T11:54:14.700Z,23.05
2022-09-20T11:56:50.325Z,22.84
2022-09-20T11:59:28.586Z,22.79
2022-09-20T12:01:59.504Z,23.25
2022-09-20T12:04:33.589Z,23.15
2022-09-20T12:07:08.372Z,22.80
2022-09-20T12:09:40.562Z,23.10
2022-09-20T12:12:24.722Z,23.12
2022-09-20T12:14:56.296Z,23.34
2022-09-20T12:18:04.366Z,23.22
2022-09-20T12:21:00.189Z,22.83
2022-09-20T12:24:02.057Z,22.60
2022-09-20T12:26:37.892Z,22.32
2022-09-20T12:29:51.253Z,22.01
2022-09-20T12:32:53.337Z,21.96
2022-09-20T12:35:55.820Z,21.82
2022-09-20T12:38:32.030Z,21.73
2022-09-20T12:41:01.378Z,21.62
2022-09-20T12:43:31.034Z,21.40
2022-09-20T12:46:05.438Z,21.49
2022-09-20T12:48:37.793Z,21.68
2022-09-20T12:51:35.047Z,21.65
2022-09-20T12:54:06.713Z,21.53
2022-09-20T12:56:36.441Z,21.43
2022-09-20T12:59:08.442Z,21.24
2022-09-20T13:01:40.328Z,21.09
2022-09-20T13:04:55.283Z,21.00
2022-09-20T13:07:46.986Z,20.90
2022-09-20T13:10:27.746Z,20.85
2022-09-20T13:13:00.123Z,21.07
2022-09-20T13:15:27.826Z,21.01
2022-09-20T13:18:01.420Z,21.10
2022-09-20T13:20:34.698Z,21.07
2022-09-20T13:23:03.781Z,20.89
2022-09-20T13:25:33.289Z,21.08
2022-09-20T13:28:21.087Z,21.58
2022-09-20T13:30:48.464Z,21.76
2022-09-20T13:33:22.520Z,21.92
2022-09-20T13:35:52.613Z,22.00
2022-09-20T13:38:22.750Z,22.10
2022-09-20T13:40:52.000Z,22.09
2022-09-20T13:43:27.846Z,22.36
2022-09-20T13:45:58.104Z,22.58
2022-09-20T13:48:28.606Z,22.75
2022-09-20T13:50:57.486Z,22.82
2022-09-20T13:53:41.603Z,22.82
2022-09-20T13:56:11.538Z,22.78
2022-09-20T13:58:38.752Z,22.35
2022-09-20T14:01:19.316Z,21.79
2022-09-20T14:03:48.621Z,21.47
2022-09-20T14:06:17.507Z,21.39
2022-09-20T14:08:48.189Z,21.44
2022-09-20T14:11:18.610Z,21.64
2022-09-20T14:13:48.837Z,21.69
2022-09-20T14:16:18.418Z,21.61
2022-09-20T14:18:48.486Z,21.39
2022-09-20T14:21:22.833Z,21.27
2022-09-20T14:23:52.079Z,21.13
2022-09-20T14:26:25.938Z,20.91
2022-09-20T14:28:53.400Z,20.78
2022-09-20T14:31:23.941Z,20.79
2022-09-20T14:33:55.478Z,20.79
2022-09-20T14:36:25.379Z,20.86
2022-09-20T14:38:55.608Z,20.80
2022-09-20T14:41:28.986Z,20.69
2022-09-20T14:43:58.699Z,20.61
2022-09-20T14:46:33.873Z,20.52
2022-09-20T14:49:39.105Z,20.49
2022-09-20T14:52:38.220Z,20.64
2022-09-20T14:55:21.205Z,20.77
2022-09-20T14:57:48.945Z,20.84
2022-09-20T15:00:19.402Z,20.87
2022-09-20T15:02:47.310Z,20.91
2022-09-20T15:05:23.946Z,20.88
2022-09-20T15:07:51.223Z,20.78
2022-09-20T15:10:18.626Z,20.69
2022-09-20T15:12:45.817Z,20.66
2022-09-20T15:15:17.683Z,20.65
2022-09-20T15:17:46.817Z,20.63
2022-09-20T15:20:20.600Z,20.59
2022-09-20T15:22:52.008Z,20.46
2022-09-20T15:25:21.285Z,20.38
2022-09-20T15:27:50.985Z,20.25
2022-09-20T15:30:22.478Z,20.12
2022-09-20T15:32:49.757Z,20.02
2022-09-20T15:35:16.941Z,19.95
2022-09-20T15:37:44.857Z,19.86
2022-09-20T15:40:13.548Z,19.75
2022-09-20T15:42:41.822Z,19.66
2022-09-20T15:45:10.994Z,19.55
2022-09-20T15:47:39.248Z,19.48
2022-09-20T15:50:10.975Z,19.36
2022-09-20T15:52:40.726Z,19.25
2022-09-20T15:55:08.628Z,19.18
2022-09-20T15:57:37.144Z,19.11
2022-09-20T16:00:05.136Z,19.00
2022-09-20T16:02:36.187Z,18.87
2022-09-20T16:05:04.362Z,18.80
2022-09-20T16:07:31.497Z,18.72
2022-09-20T16:09:58.724Z,18.65
2022-09-20T16:12:25.974Z,18.55
2022-09-20T16:14:54.515Z,18.44
2022-09-20T16:17:41.703Z,18.35
2022-09-20T16:20:09.953Z,18.30
2022-09-20T16:22:37.140Z,18.27
2022-09-20T16:25:06.068Z,18.24
2022-09-20T16:27:34.876Z,18.20
2022-09-20T16:30:04.459Z,18.16
2022-09-20T16:32:31.717Z,18.08
2022-09-20T16:35:01.193Z,17.97
2022-09-20T16:37:32.671Z,17.85
2022-09-20T16:40:00.504Z,17.73
2022-09-20T16:42:27.645Z,17.60
2022-09-20T16:44:54.878Z,17.51
2022-09-20T16:47:25.024Z,17.45
2022-09-20T16:49:53.203Z,17.35
2022-09-20T16:52:20.477Z,17.29
2022-09-20T16:54:47.666Z,17.23
2022-09-20T16:57:15.674Z,17.15
2022-09-20T16:59:43.313Z,17.03
2022-09-20T17:02:11.122Z,16.90
2022-09-20T17:04:40.300Z,16.75
2022-09-20T17:07:07.791Z,16.67
2022-09-20T17:09:34.916Z,16.60
2022-09-20T17:12:04.239Z,16.54
2022-09-20T17:14:31.440Z,16.46
2022-09-20T17:16:58.867Z,16.40
2022-09-20T17:19:26.725Z,16.32
2022-09-20T17:21:55.319Z,16.28
2022-09-20T17:24:23.458Z,16.22
2022-09-20T17:26:52.385Z,16.14
2022-09-20T17:29:20.547Z,16.05
2022-09-20T17:31:54.411Z,16.02
2022-09-20T17:34:22.995Z,15.99
2022-09-20T17:36:50.923Z,15.96
2022-09-20T17:39:19.841Z,15.92
2022-09-20T17:41:48.501Z,15.89
2022-09-20T17:44:16.209Z,15.86
2022-09-20T17:46:45.016Z,15.82
2022-09-20T17:49:14.462Z,15.78
2022-09-20T17:51:43.250Z,15.73
2022-09-20T17:54:14.455Z,15.70
2022-09-20T17:56:44.961Z,15.66
2022-09-20T17:59:15.704Z,15.63
2022-09-20T18:01:43.906Z,15.55
2022-09-20T18:04:11.199Z,15.51
2022-09-20T18:06:42.379Z,15.43
2022-09-20T18:09:11.643Z,15.38
2022-09-20T18:11:40.772Z,15.34
2022-09-20T18:14:13.563Z,15.21
2022-09-20T18:16:41.344Z,15.20
2022-09-20T18:19:09.399Z,15.18
2022-09-20T18:21:38.812Z,15.17
2022-09-20T18:24:07.685Z,15.15
2022-09-20T18:26:37.027Z,15.11
2022-09-20T18:29:05.857Z,15.10
2022-09-20T18:31:36.298Z,15.09
2022-09-20T18:34:05.386Z,15.07
2022-09-20T18:36:34.945Z,15.04
2022-09-20T18:39:03.197Z,15.00
2022-09-20T18:41:33.078Z,14.98
2022-09-20T18:44:02.913Z,14.93
2022-09-20T18:46:31.235Z,14.91
2022-09-20T18:49:04.974Z,14.82
2022-09-20T18:51:35.822Z,14.76
2022-09-20T18:54:05.358Z,14.77
2022-09-20T18:56:34.935Z,14.78
2022-09-20T18:59:04.298Z,14.79
2022-09-20T19:01:50.591Z,14.80
2022-09-20T19:04:32.608Z,14.77
2022-09-20T19:07:12.962Z,14.66
2022-09-20T19:09:46.388Z,14.56
2022-09-20T19:12:20.819Z,14.47
2022-09-20T19:15:02.329Z,14.36
2022-09-20T19:17:43.737Z,14.23
2022-09-20T19:20:19.843Z,14.14
2022-09-20T19:22:57.609Z,14.07
2022-09-20T19:25:28.581Z,13.98
2022-09-20T19:27:56.237Z,13.85
2022-09-20T19:30:24.017Z,13.78
2022-09-20T19:32:51.813Z,13.77
2022-09-20T19:35:28.680Z,13.74
2022-09-20T19:38:07.065Z,13.67
2022-09-20T19:40:42.576Z,13.63
2022-09-20T19:43:32.031Z,13.55
2022-09-20T19:46:13.441Z,13.51
2022-09-20T19:48:45.128Z,13.43
2022-09-20T19:51:15.112Z,13.39
2022-09-20T19:53:43.257Z,13.27
2022-09-20T19:56:22.890Z,13.14
2022-09-20T19:58:53.118Z,13.09
2022-09-20T20:01:22.642Z,13.02
2022-09-20T20:03:50.865Z,12.97
2022-09-20T20:06:25.953Z,12.87
2022-09-20T20:09:02.474Z,12.77
2022-09-20T20:11:39.144Z,12.58
2022-09-20T20:14:16.169Z,12.49
2022-09-20T20:16:57.474Z,12.46
2022-09-20T20:19:46.480Z,12.36
2022-09-20T20:22:29.326Z,12.27
2022-09-20T20:24:57.541Z,12.23
2022-09-20T20:27:29.178Z,12.26
2022-09-20T20:29:56.778Z,12.30
2022-09-20T20:32:24.192Z,12.36
2022-09-20T20:34:51.411Z,12.43
2022-09-20T20:37:23.986Z,12.47
2022-09-20T20:39:52.215Z,12.46
2022-09-20T20:42:19.654Z,12.43
2022-09-20T20:44:47.530Z,12.46
2022-09-20T20:47:14.726Z,12.49
2022-09-20T20:49:42.485Z,12.52
2022-09-20T20:52:09.714Z,12.55
2022-09-20T20:54:38.444Z,12.57
2022-09-20T20:57:08.506Z,12.59
2022-09-20T20:59:35.648Z,12.58
2022-09-20T21:02:07.214Z,12.53
2022-09-20T21:04:36.963Z,12.50
2022-09-20T21:07:04.341Z,12.49
2022-09-20T21:09:32.152Z,12.52
2022-09-20T21:12:00.830Z,12.53
2022-09-20T21:14:28.134Z,12.53
2022-09-20T21:16:55.468Z,12.52
2022-09-20T21:19:23.061Z,12.52
2022-09-20T21:21:50.328Z,12.51
2022-09-20T21:24:17.658Z,12.48
2022-09-20T21:26:46.275Z,12.46
2022-09-20T21:29:16.721Z,12.42
2022-09-20T21:31:45.630Z,12.42
2022-09-20T21:34:15.405Z,12.35
2022-09-20T21:36:44.829Z,12.35
2022-09-20T21:39:12.293Z,12.34
2022-09-20T21:41:40.191Z,12.32
2022-09-20T21:44:09.983Z,12.31
2022-09-20T21:46:40.298Z,12.27
2022-09-20T21:49:08.715Z,12.24
2022-09-20T21:51:36.537Z,12.20
2022-09-20T21:54:04.855Z,12.18
2022-09-20T21:56:33.985Z,12.16
2022-09-20T21:59:03.870Z,12.14
2022-09-20T22:01:36.612Z,12.11
2022-09-20T22:04:07.713Z,12.09
2022-09-20T22:06:36.835Z,12.02
2022-09-20T22:09:05.958Z,11.97
2022-09-20T22:11:35.798Z,11.93
2022-09-20T22:14:03.080Z,11.89
2022-09-20T22:16:31.967Z,11.85
2022-09-20T22:18:59.926Z,11.80
2022-09-20T22:21:30.704Z,11.75
2022-09-20T22:24:00.299Z,11.75
2022-09-20T22:26:30.166Z,11.72
2022-09-20T22:28:57.883Z,11.68
2022-09-20T22:31:27.019Z,11.66
2022-09-20T22:33:55.686Z,11.62
2022-09-20T22:36:26.743Z,11.57
2022-09-20T22:38:56.122Z,11.53
2022-09-20T22:41:24.089Z,11.51
2022-09-20T22:43:52.176Z,11.51
2022-09-20T22:46:20.974Z,11.50
2022-09-20T22:48:49.000Z,11.46
2022-09-20T22:51:18.125Z,11.41
2022-09-20T22:53:46.643Z,11.34
2022-09-20T22:56:18.059Z,11.32
2022-09-20T22:58:47.379Z,11.23
2022-09-20T23:01:16.366Z,11.12
2022-09-20T23:03:45.404Z,10.99
2022-09-20T23:06:14.616Z,10.99
2022-09-20T23:08:42.453Z,10.93
2022-09-20T23:11:10.144Z,10.94
2022-09-20T23:13:39.085Z,10.90
2022-09-20T23:16:14.311Z,10.88
2022-09-20T23:18:41.740Z,10.89
2022-09-20T23:21:08.951Z,10.87
2022-09-20T23:23:36.689Z,10.89
2022-09-20T23:26:07.422Z,10.91
2022-09-20T23:28:35.474Z,10.91
2022-09-20T23:31:06.080Z,10.90
2022-09-20T23:33:33.979Z,10.91
2022-09-20T23:36:03.643Z,10.89
2022-09-20T23:38:30.782Z,10.86
2022-09-20T23:41:02.960Z,10.86
2022-09-20T23:43:30.185Z,10.87
2022-09-20T23:45:57.485Z,10.87
2022-09-20T23:48:26.521Z,10.87
2022-09-20T23:50:53.925Z,10.87
2022-09-20T23:53:21.220Z,10.83
2022-09-20T23:55:48.498Z,10.81
2022-09-20T23:58:15.928Z,10.81
